createdAt,value
2018-12-26T00:00:11.371Z,103815.21
2018-12-26T00:03:15.121Z,103802.56
2018-12-26T00:06:18.830Z,103801.70
2018-12-26T00:09:22.332Z,103786.60
2018-12-26T00:12:25.889Z,103791.58
2018-12-26T00:15:30.384Z,103791.58
2018-12-26T00:18:34.089Z,103796.16
2018-12-26T00:21:37.675Z,103805.29
2018-12-26T00:24:41.183Z,103816.23
2018-12-26T00:27:44.690Z,103811.31
2018-12-26T00:30:48.187Z,103818.34
2018-12-26T00:33:51.710Z,103812.71
2018-12-26T00:36:55.315Z,103809.49
2018-12-26T00:39:58.787Z,103810.01
2018-12-26T00:43:02.355Z,103800.70
2018-12-26T00:46:05.797Z,103793.06
2018-12-26T00:49:09.381Z,103797.59
2018-12-26T00:52:13.009Z,103795.75
2018-12-26T00:55:16.501Z,103805.21
2018-12-26T00:58:20.124Z,103816.53
2018-12-26T01:01:25.596Z,103821.72
2018-12-26T01:04:29.181Z,103818.69
2018-12-26T01:07:32.685Z,103824.59
2018-12-26T01:10:36.272Z,103817.23
2018-12-26T01:13:39.885Z,103815.40
2018-12-26T01:16:43.634Z,103815.71
2018-12-26T01:19:47.379Z,103824.44
2018-12-26T01:22:51.049Z,103833.33
2018-12-26T01:25:54.643Z,103824.96
2018-12-26T01:28:58.307Z,103817.68
2018-12-26T01:32:01.901Z,103802.51
2018-12-26T01:35:05.643Z,103796.60
2018-12-26T01:38:09.162Z,103802.69
2018-12-26T01:41:12.757Z,103789.40
2018-12-26T01:44:16.357Z,103780.22
2018-12-26T01:47:19.957Z,103789.37
2018-12-26T01:50:25.164Z,103782.28
2018-12-26T01:53:28.698Z,103791.72
2018-12-26T01:56:32.314Z,103789.93
2018-12-26T01:59:35.833Z,103784.79
2018-12-26T02:02:39.342Z,103789.17
2018-12-26T02:05:42.951Z,103789.50
2018-12-26T02:08:46.561Z,103796.91
2018-12-26T02:11:50.111Z,103800.66
2018-12-26T02:14:53.656Z,103805.37
2018-12-26T02:17:57.301Z,103788.83
2018-12-26T02:21:00.990Z,103780.12
2018-12-26T02:24:04.617Z,103780.79
2018-12-26T02:27:08.092Z,103772.90
2018-12-26T02:30:11.689Z,103777.48
2018-12-26T02:33:15.301Z,103778.82
2018-12-26T02:36:18.785Z,103778.79
2018-12-26T02:39:23.381Z,103768.49
2018-12-26T02:42:27.006Z,103756.60
2018-12-26T02:45:30.521Z,103752.23
2018-12-26T02:48:34.019Z,103760.44
2018-12-26T02:51:37.525Z,103756.39
2018-12-26T02:54:41.099Z,103754.59
2018-12-26T02:57:44.641Z,103761.07
2018-12-26T03:00:48.151Z,103767.40
2018-12-26T03:03:51.752Z,103759.71
2018-12-26T03:06:56.418Z,103752.45
2018-12-26T03:09:59.973Z,103738.90
2018-12-26T03:13:04.603Z,103742.97
2018-12-26T03:16:08.202Z,103743.78
2018-12-26T03:19:11.810Z,103728.06
2018-12-26T03:22:15.413Z,103722.41
2018-12-26T03:25:18.926Z,103721.06
2018-12-26T03:28:22.523Z,103719.69
2018-12-26T03:31:26.127Z,103715.28
2018-12-26T03:34:30.038Z,103722.95
2018-12-26T03:37:33.727Z,103732.41
2018-12-26T03:40:37.321Z,103721.19
2018-12-26T03:43:40.867Z,103713.14
2018-12-26T03:46:44.490Z,103712.73
2018-12-26T03:49:47.977Z,103703.16
2018-12-26T03:52:51.503Z,103705.43
2018-12-26T03:56:01.124Z,103710.04
2018-12-26T03:59:04.747Z,103710.47
2018-12-26T04:02:09.345Z,103718.49
2018-12-26T04:05:12.922Z,103714.25
2018-12-26T04:08:16.383Z,103709.54
2018-12-26T04:11:19.974Z,103706.36
2018-12-26T04:14:23.629Z,103705.90
2018-12-26T04:17:27.242Z,103707.56
2018-12-26T04:20:30.803Z,103700.87
2018-12-26T04:23:34.391Z,103709.28
2018-12-26T04:26:37.997Z,103715.58
2018-12-26T04:29:41.604Z,103713.94
2018-12-26T04:32:45.209Z,103713.51
2018-12-26T04:35:48.917Z,103722.23
2018-12-26T04:38:52.519Z,103716.60
2018-12-26T04:41:56.329Z,103718.80
2018-12-26T04:44:59.852Z,103710.75
2018-12-26T04:48:03.512Z,103715.29
2018-12-26T04:51:07.121Z,103714.44
2018-12-26T04:54:10.747Z,103714.35
2018-12-26T04:57:14.350Z,103716.22
2018-12-26T05:00:17.878Z,103716.72
2018-12-26T05:03:22.465Z,103724.49
2018-12-26T05:06:26.060Z,103720.07
2018-12-26T05:09:29.679Z,103727.36
2018-12-26T05:12:33.313Z,103729.55
2018-12-26T05:15:37.099Z,103738.07
2018-12-26T05:18:41.191Z,103738.75
2018-12-26T05:21:44.734Z,103736.41
2018-12-26T05:24:48.439Z,103738.54
2018-12-26T05:27:52.128Z,103743.12
2018-12-26T05:30:55.754Z,103743.90
2018-12-26T05:33:59.284Z,103744.77
2018-12-26T05:37:02.784Z,103749.99
2018-12-26T05:40:06.409Z,103752.67
2018-12-26T05:43:09.946Z,103758.66
2018-12-26T05:46:13.598Z,103754.01
2018-12-26T05:49:17.220Z,103756.98
2018-12-26T05:52:20.789Z,103755.40
2018-12-26T05:55:24.371Z,103756.93
2018-12-26T05:58:27.974Z,103756.97
2018-12-26T06:01:31.610Z,103753.49
2018-12-26T06:04:35.230Z,103756.59
2018-12-26T06:07:38.739Z,103754.88
2018-12-26T06:10:42.418Z,103755.39
2018-12-26T06:13:46.104Z,103756.03
2018-12-26T06:16:49.743Z,103754.60
2018-12-26T06:19:53.445Z,103753.55
2018-12-26T06:22:57.059Z,103753.34
2018-12-26T06:26:00.623Z,103755.98
2018-12-26T06:29:04.261Z,103766.26
2018-12-26T06:32:07.847Z,103763.84
2018-12-26T06:35:11.499Z,103767.80
2018-12-26T06:38:15.135Z,103762.53
2018-12-26T06:41:18.712Z,103761.06
2018-12-26T06:44:22.182Z,103770.05
2018-12-26T06:47:25.797Z,103778.05
2018-12-26T06:50:29.474Z,103780.63
2018-12-26T06:53:33.013Z,103777.62
2018-12-26T06:56:37.902Z,103769.05
2018-12-26T06:59:41.449Z,103772.80
2018-12-26T07:02:45.075Z,103781.92
2018-12-26T07:05:48.607Z,103780.37
2018-12-26T07:08:52.191Z,103788.71
2018-12-26T07:11:55.895Z,103791.08
2018-12-26T07:14:59.532Z,103795.97
2018-12-26T07:18:04.081Z,103801.11
2018-12-26T07:21:07.735Z,103804.87
2018-12-26T07:24:11.416Z,103807.46
2018-12-26T07:27:15.084Z,103804.47
2018-12-26T07:30:18.649Z,103801.86
2018-12-26T07:33:22.408Z,103803.22
2018-12-26T07:36:26.089Z,103804.62
2018-12-26T07:39:29.656Z,103802.46
2018-12-26T07:42:33.285Z,103799.45
2018-12-26T07:45:36.800Z,103804.93
2018-12-26T07:48:40.388Z,103806.59
2018-12-26T07:51:44.032Z,103814.25
2018-12-26T07:54:47.616Z,103808.05
2018-12-26T07:57:51.525Z,103813.22
2018-12-26T08:00:55.019Z,103813.37
2018-12-26T08:03:58.570Z,103814.29
2018-12-26T08:07:02.182Z,103817.21
2018-12-26T08:10:06.834Z,103823.25
2018-12-26T08:13:10.310Z,103821.94
2018-12-26T08:16:14.062Z,103828.79
2018-12-26T08:19:17.634Z,103832.28
2018-12-26T08:22:21.312Z,103828.28
2018-12-26T08:25:24.833Z,103833.54
2018-12-26T08:28:28.466Z,103829.83
2018-12-26T08:31:32.062Z,103821.89
2018-12-26T08:34:37.511Z,103822.14
2018-12-26T08:37:39.233Z,103816.98
2018-12-26T08:40:42.675Z,103823.22
2018-12-26T08:43:46.170Z,103825.17
2018-12-26T08:46:49.766Z,103822.85
2018-12-26T08:49:53.378Z,103823.03
2018-12-26T08:52:57.054Z,103829.58
2018-12-26T08:56:00.563Z,103832.39
2018-12-26T08:59:04.064Z,103833.18
2018-12-26T09:02:07.604Z,103831.56
2018-12-26T09:05:11.209Z,103834.15
2018-12-26T09:08:14.695Z,103828.54
2018-12-26T09:11:18.301Z,103819.66
2018-12-26T09:14:21.906Z,103812.88
2018-12-26T09:17:25.406Z,103814.84
2018-12-26T09:20:28.996Z,103818.61
2018-12-26T09:23:32.498Z,103815.95
2018-12-26T09:26:38.253Z,103817.61
2018-12-26T09:29:41.778Z,103819.46
2018-12-26T09:32:45.405Z,103824.21
2018-12-26T09:35:48.960Z,103825.29
2018-12-26T09:38:52.377Z,103833.67
2018-12-26T09:41:55.918Z,103830.72
2018-12-26T09:44:59.490Z,103826.59
2018-12-26T09:48:02.964Z,103828.07
2018-12-26T09:51:06.416Z,103833.32
2018-12-26T09:54:09.902Z,103837.02
2018-12-26T09:57:13.379Z,103837.60
2018-12-26T10:00:16.925Z,103832.70
2018-12-26T10:03:20.484Z,103834.41
2018-12-26T10:06:24.111Z,103837.97
2018-12-26T10:09:28.628Z,103830.68
2018-12-26T10:12:32.166Z,103834.04
2018-12-26T10:15:35.708Z,103827.84
2018-12-26T10:18:39.177Z,103824.15
2018-12-26T10:21:42.766Z,103818.61
2018-12-26T10:24:46.445Z,103816.37
2018-12-26T10:27:49.872Z,103810.45
2018-12-26T10:30:53.356Z,103808.57
2018-12-26T10:33:56.778Z,103808.83
2018-12-26T10:37:00.248Z,103804.90
2018-12-26T10:40:03.765Z,103806.21
2018-12-26T10:43:07.164Z,103805.23
2018-12-26T10:46:10.539Z,103792.38
2018-12-26T10:49:13.954Z,103794.66
2018-12-26T10:52:17.354Z,103798.22
2018-12-26T10:55:20.734Z,103796.94
2018-12-26T10:58:24.152Z,103794.83
2018-12-26T11:01:27.561Z,103789.07
2018-12-26T11:04:31.127Z,103783.50
2018-12-26T11:07:34.452Z,103781.83
2018-12-26T11:10:37.918Z,103779.35
2018-12-26T11:13:41.636Z,103778.26
2018-12-26T11:16:45.266Z,103770.87
2018-12-26T11:19:51.106Z,103773.91
2018-12-26T11:22:54.723Z,103767.93
2018-12-26T11:25:58.114Z,103761.55
2018-12-26T11:29:01.621Z,103753.72
2018-12-26T11:32:05.123Z,103746.26
2018-12-26T11:35:08.853Z,103747.71
2018-12-26T11:38:12.287Z,103737.00
2018-12-26T11:41:15.802Z,103725.77
2018-12-26T11:44:19.341Z,103730.74
2018-12-26T11:47:22.744Z,103730.31
2018-12-26T11:50:26.139Z,103729.73
2018-12-26T11:53:29.648Z,103725.92
2018-12-26T11:56:33.403Z,103720.90
2018-12-26T11:59:36.857Z,103715.69
2018-12-26T12:02:40.292Z,103714.45
2018-12-26T12:05:43.768Z,103714.50
2018-12-26T12:08:47.271Z,103711.86
2018-12-26T12:11:50.758Z,103715.36
2018-12-26T12:14:54.173Z,103710.24
2018-12-26T12:17:57.604Z,103708.42
2018-12-26T12:21:00.984Z,103710.05
2018-12-26T12:24:04.452Z,103705.80
2018-12-26T12:27:07.947Z,103698.95
2018-12-26T12:30:11.536Z,103697.45
2018-12-26T12:33:17.165Z,103695.10
2018-12-26T12:36:20.666Z,103695.84
2018-12-26T12:39:24.039Z,103692.67
2018-12-26T12:42:28.892Z,103696.37
2018-12-26T12:45:32.397Z,103707.45
2018-12-26T12:48:35.881Z,103702.67
2018-12-26T12:51:39.430Z,103693.70
2018-12-26T12:54:42.976Z,103692.78
2018-12-26T12:57:46.591Z,103688.64
2018-12-26T13:00:50.182Z,103695.34
2018-12-26T13:03:53.689Z,103690.12
2018-12-26T13:06:57.321Z,103693.73
2018-12-26T13:10:00.896Z,103690.50
2018-12-26T13:13:04.471Z,103683.56
2018-12-26T13:16:07.997Z,103687.95
2018-12-26T13:19:11.805Z,103685.78
2018-12-26T13:22:15.421Z,103692.95
2018-12-26T13:25:18.981Z,103680.03
2018-12-26T13:28:22.499Z,103681.90
2018-12-26T13:31:25.958Z,103676.77
2018-12-26T13:34:29.538Z,103684.89
2018-12-26T13:37:42.027Z,103690.89
2018-12-26T13:40:45.536Z,103692.84
2018-12-26T13:43:49.040Z,103693.96
2018-12-26T13:46:52.586Z,103698.03
2018-12-26T13:49:56.248Z,103690.80
2018-12-26T13:52:59.748Z,103691.32
2018-12-26T13:56:03.291Z,103697.52
2018-12-26T13:59:06.851Z,103691.97
2018-12-26T14:02:10.353Z,103686.10
2018-12-26T14:05:13.884Z,103685.48
2018-12-26T14:08:17.382Z,103682.34
2018-12-26T14:11:20.967Z,103682.93
2018-12-26T14:14:24.457Z,103684.66
2018-12-26T14:17:27.932Z,103688.31
2018-12-26T14:20:31.363Z,103696.11
2018-12-26T14:23:35.340Z,103685.70
2018-12-26T14:26:38.829Z,103698.23
2018-12-26T14:29:42.628Z,103690.62
2018-12-26T14:32:45.961Z,103696.74
2018-12-26T14:35:56.218Z,103694.68
2018-12-26T14:38:59.724Z,103704.32
2018-12-26T14:42:03.259Z,103698.54
2018-12-26T14:45:06.663Z,103705.80
2018-12-26T14:48:10.267Z,103701.69
2018-12-26T14:51:13.820Z,103697.12
2018-12-26T14:54:17.299Z,103694.27
2018-12-26T14:57:20.790Z,103699.36
2018-12-26T15:00:24.310Z,103704.75
2018-12-26T15:03:28.136Z,103702.65
2018-12-26T15:06:32.722Z,103702.89
2018-12-26T15:09:36.328Z,103708.02
2018-12-26T15:12:39.759Z,103697.14
2018-12-26T15:15:43.532Z,103695.11
2018-12-26T15:18:47.201Z,103700.06
2018-12-26T15:21:50.655Z,103700.01
2018-12-26T15:24:54.131Z,103692.73
2018-12-26T15:27:57.693Z,103690.98
2018-12-26T15:31:01.461Z,103689.87
2018-12-26T15:34:05.068Z,103688.32
2018-12-26T15:37:08.457Z,103689.56
2018-12-26T15:40:12.160Z,103686.58
2018-12-26T15:43:15.595Z,103684.79
2018-12-26T15:46:19.097Z,103692.76
2018-12-26T15:49:22.646Z,103691.38
2018-12-26T15:52:26.167Z,103689.16
2018-12-26T15:55:29.686Z,103685.76
2018-12-26T15:58:33.245Z,103690.09
2018-12-26T16:01:37.816Z,103687.25
2018-12-26T16:04:41.311Z,103691.13
2018-12-26T16:07:45.494Z,103690.15
2018-12-26T16:10:48.917Z,103691.87
2018-12-26T16:13:52.456Z,103679.44
2018-12-26T16:16:55.936Z,103682.63
2018-12-26T16:19:59.412Z,103678.75
2018-12-26T16:23:03.211Z,103680.73
2018-12-26T16:26:06.741Z,103673.14
2018-12-26T16:29:10.160Z,103667.58
2018-12-26T16:32:13.607Z,103659.87
2018-12-26T16:35:17.213Z,103668.35
2018-12-26T16:38:20.754Z,103663.71
2018-12-26T16:41:24.152Z,103658.33
2018-12-26T16:44:27.546Z,103658.92
2018-12-26T16:47:31.147Z,103653.91
2018-12-26T16:50:34.675Z,103658.39
2018-12-26T16:53:38.413Z,103651.76
2018-12-26T16:56:41.890Z,103651.35
2018-12-26T16:59:45.385Z,103652.84
2018-12-26T17:02:48.935Z,103649.63
2018-12-26T17:05:52.430Z,103655.21
2018-12-26T17:08:56.057Z,103652.90
2018-12-26T17:11:59.594Z,103658.82
2018-12-26T17:15:02.984Z,103657.15
2018-12-26T17:18:06.565Z,103659.34
2018-12-26T17:21:10.129Z,103652.56
2018-12-26T17:24:16.671Z,103658.46
2018-12-26T17:27:17.310Z,103654.64
2018-12-26T17:30:21.029Z,103655.86
2018-12-26T17:33:24.538Z,103649.31
2018-12-26T17:36:27.990Z,103651.38
2018-12-26T17:39:32.002Z,103654.24
2018-12-26T17:42:35.704Z,103653.49
2018-12-26T17:45:39.269Z,103658.67
2018-12-26T17:48:42.874Z,103653.69
2018-12-26T17:51:46.456Z,103648.44
2018-12-26T17:56:03.689Z,103651.70
2018-12-26T17:59:15.419Z,103650.35
2018-12-26T18:02:23.655Z,103646.63
2018-12-26T18:05:27.228Z,103642.86
2018-12-26T18:08:30.880Z,103641.32
2018-12-26T18:11:34.616Z,103636.94
2018-12-26T18:14:38.124Z,103636.77
2018-12-26T18:17:41.650Z,103632.64
2018-12-26T18:20:45.330Z,103634.86
2018-12-26T18:23:49.103Z,103639.39
2018-12-26T18:26:52.569Z,103638.57
2018-12-26T18:29:56.073Z,103634.87
2018-12-26T18:32:59.743Z,103634.58
2018-12-26T18:36:04.172Z,103635.91
2018-12-26T18:39:08.111Z,103636.14
2018-12-26T18:42:11.772Z,103626.85
2018-12-26T18:45:15.356Z,103628.33
2018-12-26T18:48:18.828Z,103628.43
2018-12-26T18:51:22.423Z,103627.40
2018-12-26T18:54:26.044Z,103623.97
2018-12-26T18:57:29.545Z,103626.25
2018-12-26T19:00:33.113Z,103619.85
2018-12-26T19:03:36.747Z,103621.12
2018-12-26T19:06:40.297Z,103611.45
2018-12-26T19:09:43.893Z,103613.79
2018-12-26T19:12:47.438Z,103608.27
2018-12-26T19:15:51.039Z,103612.65
2018-12-26T19:18:54.543Z,103604.07
2018-12-26T19:21:58.030Z,103600.12
2018-12-26T19:25:01.535Z,103600.88
2018-12-26T19:28:05.138Z,103604.84
2018-12-26T19:31:08.551Z,103608.76
2018-12-26T19:34:12.045Z,103603.42
2018-12-26T19:37:15.584Z,103598.70
2018-12-26T19:40:20.196Z,103598.72
2018-12-26T19:43:23.678Z,103603.25
2018-12-26T19:46:27.213Z,103601.47
2018-12-26T19:49:30.704Z,103596.87
2018-12-26T19:52:34.330Z,103602.56
2018-12-26T19:55:37.885Z,103599.86
2018-12-26T19:58:41.411Z,103606.07
2018-12-26T20:01:48.235Z,103598.74
2018-12-26T20:04:48.504Z,103598.31
2018-12-26T20:07:52.010Z,103595.09
2018-12-26T20:10:59.936Z,103584.98
2018-12-26T20:14:03.459Z,103583.43
2018-12-26T20:17:06.980Z,103584.96
2018-12-26T20:20:10.597Z,103581.17
2018-12-26T20:23:14.015Z,103583.49
2018-12-26T20:26:17.517Z,103579.23
2018-12-26T20:29:21.099Z,103580.42
2018-12-26T20:32:24.717Z,103581.67
2018-12-26T20:35:28.311Z,103571.10
2018-12-26T20:38:31.825Z,103566.69
2018-12-26T20:41:35.565Z,103560.71
2018-12-26T20:44:40.061Z,103562.27
2018-12-26T20:47:43.577Z,103555.28
2018-12-26T20:50:47.350Z,103551.95
2018-12-26T20:53:50.766Z,103550.36
2018-12-26T20:56:54.251Z,103544.52
2018-12-26T20:59:57.771Z,103548.16
2018-12-26T21:03:01.288Z,103546.94
2018-12-26T21:06:04.880Z,103546.09
2018-12-26T21:09:08.311Z,103541.02
2018-12-26T21:12:11.811Z,103536.78
2018-12-26T21:15:15.332Z,103532.19
2018-12-26T21:18:18.852Z,103532.85
2018-12-26T21:21:22.381Z,103529.83
2018-12-26T21:24:25.933Z,103536.07
2018-12-26T21:27:30.480Z,103531.24
2018-12-26T21:30:33.976Z,103536.66
2018-12-26T21:33:37.725Z,103529.26
2018-12-26T21:36:42.317Z,103529.17
2018-12-26T21:39:45.868Z,103528.89
2018-12-26T21:42:49.411Z,103532.26
2018-12-26T21:45:52.884Z,103536.22
2018-12-26T21:48:56.508Z,103537.47
2018-12-26T21:52:00.007Z,103535.88
2018-12-26T21:55:03.422Z,103527.17
2018-12-26T21:58:06.915Z,103529.51
2018-12-26T22:01:10.744Z,103527.30
2018-12-26T22:04:13.821Z,103520.20
2018-12-26T22:07:17.304Z,103514.66
2018-12-26T22:10:21.837Z,103511.73
2018-12-26T22:13:25.353Z,103504.97
2018-12-26T22:16:28.849Z,103503.44
2018-12-26T22:19:32.369Z,103503.13
2018-12-26T22:22:36.254Z,103507.90
2018-12-26T22:25:39.684Z,103509.20
2018-12-26T22:28:43.143Z,103505.82
2018-12-26T22:31:46.689Z,103505.56
2018-12-26T22:34:50.067Z,103501.67
2018-12-26T22:37:54.569Z,103501.98
2018-12-26T22:40:58.184Z,103500.90
2018-12-26T22:44:01.825Z,103494.42
2018-12-26T22:47:05.320Z,103498.65
2018-12-26T22:50:08.803Z,103502.75
2018-12-26T22:53:12.301Z,103498.39
2018-12-26T22:56:16.003Z,103493.85
2018-12-26T22:59:19.513Z,103490.26
2018-12-26T23:02:22.985Z,103491.17
2018-12-26T23:05:26.443Z,103486.46
2018-12-26T23:08:29.934Z,103480.62
2018-12-26T23:11:33.420Z,103477.61
2018-12-26T23:14:36.829Z,103476.74
2018-12-26T23:17:40.223Z,103471.38
2018-12-26T23:20:43.735Z,103461.36
2018-12-26T23:23:47.125Z,103462.70
2018-12-26T23:26:57.140Z,103458.73
2018-12-26T23:30:00.583Z,103463.57
2018-12-26T23:33:04.057Z,103457.43
2018-12-26T23:36:07.547Z,103451.30
2018-12-26T23:39:11.088Z,103452.68
2018-12-26T23:42:14.476Z,103443.00
2018-12-26T23:45:17.897Z,103443.77
2018-12-26T23:48:21.299Z,103439.92
2018-12-26T23:51:24.706Z,103435.61
2018-12-26T23:54:28.172Z,103435.15
2018-12-26T23:57:31.692Z,103434.32
